Linda Fortune — 3FOW6 — position and weather

sailwx.info

Track history (hours):
 
Tides and Currents Weather Stations Pressure Air Temp Water Temp Dewpoint Dewpoint Depression Visibility Wind Speed Wind Dir Waves Ship Positions

Linda Fortune

Last reported at 2017-Sep-10 21:44 UTC. Time now 2017-Oct-20 12:52 UTC.
Position N 01°20' E 103°18'.
Warning: this ship's position is 39 days out of date.

Length 281 m; draft 17.4 m.

Type: Cargo ship. MMSI: 352793000.

Date/timePositionNaut miles runAvg speedWind from/ knotsBaromVisibWave heightAir tempDewpointWater temp
2017-Sep-10 21:44N 01°20' E 103°18'312.4
2017-Sep-10 21:28N 01°18' E 103°20'612.2
2017-Sep-10 20:59N 01°14' E 103°25'612.0
2017-Sep-10 20:30N 01°13' E 103°31'611.8
2017-Sep-10 19:59N 01°12' E 103°37'511.1
2017-Sep-10 19:30N 01°10' E 103°42'510.2
2017-Sep-10 18:59N 01°10' E 103°47'510.0
2017-Sep-10 18:30N 01°12' E 103°51'612.4
2017-Sep-10 18:00N 01°14' E 103°57'611.8
2017-Sep-10 17:30N 01°16' E 104°03'  
Track history (hours):
 
Tides and Currents Weather Stations Pressure Air Temp Water Temp Dewpoint Dewpoint Depression Visibility Wind Speed Wind Dir Waves Ship Positions

Linda Fortune

Last reported at 2017-Sep-10 21:44 UTC. Time now 2017-Oct-20 12:52 UTC.
Position N 01°20' E 103°18'.
Warning: this ship's position is 39 days out of date.

Length 281 m; draft 17.4 m.

Type: Cargo ship. MMSI: 352793000.

Date/timePositionNaut miles runAvg speedWind from/ knotsBaromVisibWave heightAir tempDewpointWater temp
2017-Sep-10 21:44N 01°20' E 103°18'312.4
2017-Sep-10 21:28N 01°18' E 103°20'612.2
2017-Sep-10 20:59N 01°14' E 103°25'612.0
2017-Sep-10 20:30N 01°13' E 103°31'611.8
2017-Sep-10 19:59N 01°12' E 103°37'511.1
2017-Sep-10 19:30N 01°10' E 103°42'510.2
2017-Sep-10 18:59N 01°10' E 103°47'510.0
2017-Sep-10 18:30N 01°12' E 103°51'612.4
2017-Sep-10 18:00N 01°14' E 103°57'611.8
2017-Sep-10 17:30N 01°16' E 104°03'  

Dump ship's entire track history